sensor_id;sensor_type;location;lat;lon;timestamp;P1;durP1;ratioP1;P2;durP2;ratioP2
12441;SDS011;6285;48.804;9.220;2022-12-29T00:01:28;5.75;;;3.45;;
12441;SDS011;6285;48.804;9.220;2022-12-29T00:03:55;3.53;;;2.50;;
12441;SDS011;6285;48.804;9.220;2022-12-29T00:06:22;3.58;;;2.60;;
12441;SDS011;6285;48.804;9.220;2022-12-29T00:08:49;4.85;;;2.53;;
12441;SDS011;6285;48.804;9.220;2022-12-29T00:11:17;2.78;;;2.00;;
12441;SDS011;6285;48.804;9.220;2022-12-29T00:13:45;3.70;;;2.45;;
12441;SDS011;6285;48.804;9.220;2022-12-29T00:16:31;2.35;;;2.15;;
12441;SDS011;6285;48.804;9.220;2022-12-29T00:18:59;6.22;;;3.75;;
12441;SDS011;6285;48.804;9.220;2022-12-29T00:21:26;8.35;;;4.82;;
12441;SDS011;6285;48.804;9.220;2022-12-29T00:24:12;7.57;;;4.07;;
12441;SDS011;6285;48.804;9.220;2022-12-29T00:26:57;5.13;;;3.10;;
12441;SDS011;6285;48.804;9.220;2022-12-29T00:29:42;4.10;;;2.60;;
12441;SDS011;6285;48.804;9.220;2022-12-29T00:32:28;4.68;;;2.50;;
12441;SDS011;6285;48.804;9.220;2022-12-29T00:35:14;3.50;;;2.30;;
12441;SDS011;6285;48.804;9.220;2022-12-29T00:37:43;3.20;;;2.10;;
12441;SDS011;6285;48.804;9.220;2022-12-29T00:40:28;2.88;;;2.05;;
12441;SDS011;6285;48.804;9.220;2022-12-29T00:43:27;7.72;;;2.78;;
12441;SDS011;6285;48.804;9.220;2022-12-29T00:46:12;3.70;;;2.85;;
12441;SDS011;6285;48.804;9.220;2022-12-29T00:48:40;4.45;;;2.70;;
12441;SDS011;6285;48.804;9.220;2022-12-29T00:51:25;5.57;;;2.53;;
12441;SDS011;6285;48.804;9.220;2022-12-29T00:53:52;5.30;;;2.80;;
12441;SDS011;6285;48.804;9.220;2022-12-29T00:56:19;5.97;;;2.95;;
12441;SDS011;6285;48.804;9.220;2022-12-29T00:58:46;2.97;;;2.42;;
12441;SDS011;6285;48.804;9.220;2022-12-29T01:01:13;4.35;;;2.70;;
12441;SDS011;6285;48.804;9.220;2022-12-29T01:03:41;3.45;;;2.70;;
12441;SDS011;6285;48.804;9.220;2022-12-29T01:06:10;2.85;;;2.10;;
12441;SDS011;6285;48.804;9.220;2022-12-29T01:08:37;4.28;;;2.50;;
12441;SDS011;6285;48.804;9.220;2022-12-29T01:11:05;4.78;;;2.78;;
12441;SDS011;6285;48.804;9.220;2022-12-29T01:13:31;2.55;;;2.35;;
12441;SDS011;6285;48.804;9.220;2022-12-29T01:15:59;3.05;;;2.38;;
12441;SDS011;6285;48.804;9.220;2022-12-29T01:18:26;3.55;;;2.33;;
12441;SDS011;6285;48.804;9.220;2022-12-29T01:20:59;2.80;;;2.10;;
12441;SDS011;6285;48.804;9.220;2022-12-29T01:23:26;3.95;;;2.15;;
12441;SDS011;6285;48.804;9.220;2022-12-29T01:25:53;2.92;;;2.42;;
12441;SDS011;6285;48.804;9.220;2022-12-29T01:28:20;3.88;;;2.20;;
12441;SDS011;6285;48.804;9.220;2022-12-29T01:30:47;2.90;;;2.22;;
12441;SDS011;6285;48.804;9.220;2022-12-29T01:33:14;4.30;;;2.00;;
12441;SDS011;6285;48.804;9.220;2022-12-29T01:35:41;2.53;;;1.85;;
12441;SDS011;6285;48.804;9.220;2022-12-29T01:38:10;2.75;;;2.03;;
12441;SDS011;6285;48.804;9.220;2022-12-29T01:40:42;4.30;;;2.13;;
12441;SDS011;6285;48.804;9.220;2022-12-29T01:43:10;5.25;;;2.50;;
12441;SDS011;6285;48.804;9.220;2022-12-29T01:45:37;2.80;;;2.00;;
12441;SDS011;6285;48.804;9.220;2022-12-29T01:48:04;5.53;;;2.13;;
12441;SDS011;6285;48.804;9.220;2022-12-29T01:50:33;3.63;;;2.05;;
12441;SDS011;6285;48.804;9.220;2022-12-29T01:53:03;4.13;;;2.30;;
12441;SDS011;6285;48.804;9.220;2022-12-29T01:55:33;4.38;;;2.20;;
12441;SDS011;6285;48.804;9.220;2022-12-29T01:58:01;2.83;;;2.28;;
12441;SDS011;6285;48.804;9.220;2022-12-29T02:00:30;5.38;;;2.53;;
12441;SDS011;6285;48.804;9.220;2022-12-29T02:02:57;4.15;;;2.30;;
12441;SDS011;6285;48.804;9.220;2022-12-29T02:05:25;3.88;;;2.30;;
12441;SDS011;6285;48.804;9.220;2022-12-29T02:07:54;3.00;;;2.25;;
12441;SDS011;6285;48.804;9.220;2022-12-29T02:10:22;3.10;;;2.40;;
12441;SDS011;6285;48.804;9.220;2022-12-29T02:12:52;4.32;;;2.50;;
12441;SDS011;6285;48.804;9.220;2022-12-29T02:15:20;6.28;;;3.17;;
12441;SDS011;6285;48.804;9.220;2022-12-29T02:17:53;4.28;;;2.53;;
12441;SDS011;6285;48.804;9.220;2022-12-29T02:20:27;5.00;;;3.08;;
12441;SDS011;6285;48.804;9.220;2022-12-29T02:23:04;7.10;;;2.95;;
12441;SDS011;6285;48.804;9.220;2022-12-29T02:25:41;3.47;;;2.70;;
12441;SDS011;6285;48.804;9.220;2022-12-29T02:31:01;5.18;;;2.97;;
12441;SDS011;6285;48.804;9.220;2022-12-29T02:33:34;4.22;;;2.75;;
12441;SDS011;6285;48.804;9.220;2022-12-29T02:36:06;6.28;;;2.78;;
12441;SDS011;6285;48.804;9.220;2022-12-29T02:38:41;4.18;;;3.05;;
12441;SDS011;6285;48.804;9.220;2022-12-29T02:41:11;3.75;;;2.60;;
12441;SDS011;6285;48.804;9.220;2022-12-29T02:43:42;3.28;;;2.80;;
12441;SDS011;6285;48.804;9.220;2022-12-29T02:46:12;4.20;;;2.53;;
12441;SDS011;6285;48.804;9.220;2022-12-29T02:48:45;3.65;;;2.70;;
12441;SDS011;6285;48.804;9.220;2022-12-29T02:51:15;4.65;;;2.83;;
12441;SDS011;6285;48.804;9.220;2022-12-29T02:53:45;6.00;;;2.75;;
12441;SDS011;6285;48.804;9.220;2022-12-29T02:56:30;2.75;;;2.45;;
12441;SDS011;6285;48.804;9.220;2022-12-29T02:58:57;3.17;;;2.20;;
12441;SDS011;6285;48.804;9.220;2022-12-29T03:01:29;4.43;;;2.20;;
12441;SDS011;6285;48.804;9.220;2022-12-29T03:04:03;3.63;;;1.65;;
12441;SDS011;6285;48.804;9.220;2022-12-29T03:06:36;5.75;;;1.95;;
12441;SDS011;6285;48.804;9.220;2022-12-29T03:09:09;1.60;;;1.30;;
12441;SDS011;6285;48.804;9.220;2022-12-29T03:11:48;3.40;;;1.40;;
12441;SDS011;6285;48.804;9.220;2022-12-29T03:14:37;3.17;;;1.38;;
12441;SDS011;6285;48.804;9.220;2022-12-29T03:17:26;1.40;;;1.00;;
12441;SDS011;6285;48.804;9.220;2022-12-29T03:19:56;2.65;;;1.20;;
12441;SDS011;6285;48.804;9.220;2022-12-29T03:22:26;1.92;;;1.08;;
12441;SDS011;6285;48.804;9.220;2022-12-29T03:24:57;1.27;;;0.90;;
12441;SDS011;6285;48.804;9.220;2022-12-29T03:27:25;2.88;;;1.17;;
12441;SDS011;6285;48.804;9.220;2022-12-29T03:29:54;3.30;;;1.45;;
12441;SDS011;6285;48.804;9.220;2022-12-29T03:32:24;2.58;;;1.20;;
12441;SDS011;6285;48.804;9.220;2022-12-29T03:34:53;2.78;;;1.45;;
12441;SDS011;6285;48.804;9.220;2022-12-29T03:37:22;2.47;;;1.40;;
12441;SDS011;6285;48.804;9.220;2022-12-29T03:39:50;1.42;;;0.93;;
12441;SDS011;6285;48.804;9.220;2022-12-29T03:42:19;3.22;;;1.08;;
12441;SDS011;6285;48.804;9.220;2022-12-29T03:44:46;2.13;;;1.20;;
12441;SDS011;6285;48.804;9.220;2022-12-29T03:47:14;2.38;;;0.95;;
12441;SDS011;6285;48.804;9.220;2022-12-29T03:49:41;1.77;;;1.10;;
12441;SDS011;6285;48.804;9.220;2022-12-29T03:52:09;2.55;;;1.13;;
12441;SDS011;6285;48.804;9.220;2022-12-29T03:54:36;2.63;;;1.30;;
12441;SDS011;6285;48.804;9.220;2022-12-29T03:57:03;2.47;;;1.20;;
12441;SDS011;6285;48.804;9.220;2022-12-29T03:59:30;2.30;;;1.30;;
12441;SDS011;6285;48.804;9.220;2022-12-29T04:01:57;3.25;;;1.17;;
12441;SDS011;6285;48.804;9.220;2022-12-29T04:04:25;5.03;;;1.25;;
12441;SDS011;6285;48.804;9.220;2022-12-29T04:06:52;2.13;;;1.00;;
12441;SDS011;6285;48.804;9.220;2022-12-29T04:09:20;5.18;;;1.20;;
12441;SDS011;6285;48.804;9.220;2022-12-29T04:11:47;5.03;;;1.42;;
12441;SDS011;6285;48.804;9.220;2022-12-29T04:14:14;1.73;;;1.08;;
12441;SDS011;6285;48.804;9.220;2022-12-29T04:16:41;1.88;;;1.00;;
12441;SDS011;6285;48.804;9.220;2022-12-29T04:19:08;2.58;;;1.30;;
12441;SDS011;6285;48.804;9.220;2022-12-29T04:21:35;2.35;;;1.20;;
12441;SDS011;6285;48.804;9.220;2022-12-29T04:24:02;2.05;;;1.00;;
12441;SDS011;6285;48.804;9.220;2022-12-29T04:26:32;2.92;;;1.30;;
12441;SDS011;6285;48.804;9.220;2022-12-29T04:28:59;2.90;;;1.10;;
12441;SDS011;6285;48.804;9.220;2022-12-29T04:31:27;2.28;;;1.30;;
12441;SDS011;6285;48.804;9.220;2022-12-29T04:33:54;3.00;;;1.40;;
12441;SDS011;6285;48.804;9.220;2022-12-29T04:36:22;2.83;;;1.05;;
12441;SDS011;6285;48.804;9.220;2022-12-29T04:38:49;2.17;;;1.30;;
12441;SDS011;6285;48.804;9.220;2022-12-29T04:41:16;4.88;;;1.30;;
12441;SDS011;6285;48.804;9.220;2022-12-29T04:43:44;3.45;;;1.15;;
12441;SDS011;6285;48.804;9.220;2022-12-29T04:46:11;4.57;;;1.50;;
12441;SDS011;6285;48.804;9.220;2022-12-29T04:48:38;2.58;;;1.17;;
12441;SDS011;6285;48.804;9.220;2022-12-29T04:51:06;3.60;;;1.35;;
12441;SDS011;6285;48.804;9.220;2022-12-29T04:53:33;4.18;;;1.20;;
12441;SDS011;6285;48.804;9.220;2022-12-29T04:56:00;3.10;;;1.50;;
12441;SDS011;6285;48.804;9.220;2022-12-29T04:58:27;4.13;;;1.52;;
12441;SDS011;6285;48.804;9.220;2022-12-29T05:00:55;2.13;;;1.45;;
12441;SDS011;6285;48.804;9.220;2022-12-29T05:03:22;2.33;;;1.30;;
12441;SDS011;6285;48.804;9.220;2022-12-29T05:05:52;1.73;;;1.02;;
12441;SDS011;6285;48.804;9.220;2022-12-29T05:08:19;2.10;;;1.30;;
12441;SDS011;6285;48.804;9.220;2022-12-29T05:10:46;2.05;;;1.40;;
12441;SDS011;6285;48.804;9.220;2022-12-29T05:13:13;1.23;;;1.13;;
12441;SDS011;6285;48.804;9.220;2022-12-29T05:15:40;1.30;;;1.13;;
12441;SDS011;6285;48.804;9.220;2022-12-29T05:18:09;2.33;;;1.17;;
12441;SDS011;6285;48.804;9.220;2022-12-29T05:20:36;1.77;;;1.40;;
12441;SDS011;6285;48.804;9.220;2022-12-29T05:23:03;1.50;;;1.30;;
12441;SDS011;6285;48.804;9.220;2022-12-29T05:25:30;5.60;;;1.30;;
12441;SDS011;6285;48.804;9.220;2022-12-29T05:27:57;3.83;;;1.38;;
12441;SDS011;6285;48.804;9.220;2022-12-29T05:30:24;3.10;;;1.30;;
12441;SDS011;6285;48.804;9.220;2022-12-29T05:32:51;4.47;;;1.65;;
12441;SDS011;6285;48.804;9.220;2022-12-29T05:35:19;3.47;;;1.42;;
12441;SDS011;6285;48.804;9.220;2022-12-29T05:37:46;2.80;;;1.48;;
12441;SDS011;6285;48.804;9.220;2022-12-29T05:40:13;3.25;;;1.35;;
12441;SDS011;6285;48.804;9.220;2022-12-29T05:42:41;3.28;;;1.60;;
12441;SDS011;6285;48.804;9.220;2022-12-29T05:45:08;1.88;;;1.23;;
12441;SDS011;6285;48.804;9.220;2022-12-29T05:47:35;2.03;;;1.17;;
12441;SDS011;6285;48.804;9.220;2022-12-29T05:50:02;2.13;;;1.60;;
12441;SDS011;6285;48.804;9.220;2022-12-29T05:52:31;2.03;;;1.40;;
12441;SDS011;6285;48.804;9.220;2022-12-29T05:54:58;4.53;;;1.40;;
12441;SDS011;6285;48.804;9.220;2022-12-29T05:57:25;2.20;;;1.45;;
12441;SDS011;6285;48.804;9.220;2022-12-29T05:59:52;2.42;;;1.27;;
12441;SDS011;6285;48.804;9.220;2022-12-29T06:02:19;2.97;;;1.60;;
12441;SDS011;6285;48.804;9.220;2022-12-29T06:04:46;2.58;;;1.55;;
12441;SDS011;6285;48.804;9.220;2022-12-29T06:07:13;3.10;;;1.55;;
12441;SDS011;6285;48.804;9.220;2022-12-29T06:09:42;1.80;;;1.10;;
12441;SDS011;6285;48.804;9.220;2022-12-29T06:12:09;2.80;;;1.45;;
12441;SDS011;6285;48.804;9.220;2022-12-29T06:14:36;2.55;;;1.27;;
12441;SDS011;6285;48.804;9.220;2022-12-29T06:17:03;3.00;;;1.30;;
12441;SDS011;6285;48.804;9.220;2022-12-29T06:19:30;1.63;;;1.05;;
12441;SDS011;6285;48.804;9.220;2022-12-29T06:21:57;3.25;;;1.27;;
12441;SDS011;6285;48.804;9.220;2022-12-29T06:24:24;2.80;;;1.38;;
12441;SDS011;6285;48.804;9.220;2022-12-29T06:26:52;2.13;;;1.23;;
12441;SDS011;6285;48.804;9.220;2022-12-29T06:29:19;3.60;;;1.48;;
12441;SDS011;6285;48.804;9.220;2022-12-29T06:31:46;1.50;;;1.35;;
12441;SDS011;6285;48.804;9.220;2022-12-29T06:34:14;2.00;;;1.27;;
12441;SDS011;6285;48.804;9.220;2022-12-29T06:36:41;2.80;;;1.27;;
12441;SDS011;6285;48.804;9.220;2022-12-29T06:39:08;5.32;;;1.67;;
12441;SDS011;6285;48.804;9.220;2022-12-29T06:41:35;1.30;;;1.20;;
12441;SDS011;6285;48.804;9.220;2022-12-29T06:44:04;3.65;;;1.27;;
12441;SDS011;6285;48.804;9.220;2022-12-29T06:46:31;2.20;;;1.38;;
12441;SDS011;6285;48.804;9.220;2022-12-29T06:48:58;1.67;;;1.30;;
12441;SDS011;6285;48.804;9.220;2022-12-29T06:51:25;4.10;;;1.33;;
12441;SDS011;6285;48.804;9.220;2022-12-29T06:53:52;2.72;;;1.17;;
12441;SDS011;6285;48.804;9.220;2022-12-29T06:56:19;1.45;;;1.15;;
12441;SDS011;6285;48.804;9.220;2022-12-29T06:58:46;3.78;;;1.33;;
12441;SDS011;6285;48.804;9.220;2022-12-29T07:01:14;3.08;;;1.35;;
12441;SDS011;6285;48.804;9.220;2022-12-29T07:03:42;4.25;;;1.30;;
12441;SDS011;6285;48.804;9.220;2022-12-29T07:06:09;3.63;;;1.75;;
12441;SDS011;6285;48.804;9.220;2022-12-29T07:08:36;3.92;;;1.67;;
12441;SDS011;6285;48.804;9.220;2022-12-29T07:11:03;2.20;;;1.58;;
12441;SDS011;6285;48.804;9.220;2022-12-29T07:13:30;2.38;;;1.33;;
12441;SDS011;6285;48.804;9.220;2022-12-29T07:15:57;4.18;;;1.50;;
12441;SDS011;6285;48.804;9.220;2022-12-29T07:18:26;1.80;;;1.40;;
12441;SDS011;6285;48.804;9.220;2022-12-29T07:20:53;4.38;;;1.38;;
12441;SDS011;6285;48.804;9.220;2022-12-29T07:23:20;3.85;;;1.50;;
12441;SDS011;6285;48.804;9.220;2022-12-29T07:25:47;3.65;;;1.55;;
12441;SDS011;6285;48.804;9.220;2022-12-29T07:28:14;5.07;;;1.83;;
12441;SDS011;6285;48.804;9.220;2022-12-29T07:30:41;2.08;;;1.27;;
12441;SDS011;6285;48.804;9.220;2022-12-29T07:33:08;3.13;;;1.50;;
12441;SDS011;6285;48.804;9.220;2022-12-29T07:35:36;3.72;;;1.52;;
12441;SDS011;6285;48.804;9.220;2022-12-29T07:38:03;5.43;;;1.50;;
12441;SDS011;6285;48.804;9.220;2022-12-29T07:40:30;1.65;;;1.33;;
12441;SDS011;6285;48.804;9.220;2022-12-29T07:42:57;1.75;;;1.20;;
12441;SDS011;6285;48.804;9.220;2022-12-29T07:45:24;1.55;;;1.20;;
12441;SDS011;6285;48.804;9.220;2022-12-29T07:47:51;2.70;;;1.55;;
12441;SDS011;6285;48.804;9.220;2022-12-29T07:50:18;3.40;;;1.42;;
12441;SDS011;6285;48.804;9.220;2022-12-29T07:52:47;3.75;;;1.58;;
12441;SDS011;6285;48.804;9.220;2022-12-29T07:55:14;3.20;;;1.70;;
12441;SDS011;6285;48.804;9.220;2022-12-29T07:57:41;5.28;;;1.70;;
12441;SDS011;6285;48.804;9.220;2022-12-29T08:00:09;3.35;;;1.50;;
12441;SDS011;6285;48.804;9.220;2022-12-29T08:02:36;3.17;;;1.60;;
12441;SDS011;6285;48.804;9.220;2022-12-29T08:05:04;2.53;;;1.23;;
12441;SDS011;6285;48.804;9.220;2022-12-29T08:07:31;3.30;;;1.33;;
12441;SDS011;6285;48.804;9.220;2022-12-29T08:09:59;4.50;;;1.30;;
12441;SDS011;6285;48.804;9.220;2022-12-29T08:12:26;1.33;;;1.17;;
12441;SDS011;6285;48.804;9.220;2022-12-29T08:14:53;4.03;;;1.20;;
12441;SDS011;6285;48.804;9.220;2022-12-29T08:17:20;2.50;;;1.40;;
12441;SDS011;6285;48.804;9.220;2022-12-29T08:19:47;2.83;;;1.40;;
12441;SDS011;6285;48.804;9.220;2022-12-29T08:22:14;3.25;;;1.40;;
12441;SDS011;6285;48.804;9.220;2022-12-29T08:24:41;2.47;;;1.45;;
12441;SDS011;6285;48.804;9.220;2022-12-29T08:27:10;2.30;;;1.60;;
12441;SDS011;6285;48.804;9.220;2022-12-29T08:29:37;4.47;;;1.77;;
12441;SDS011;6285;48.804;9.220;2022-12-29T08:32:04;3.72;;;1.35;;
12441;SDS011;6285;48.804;9.220;2022-12-29T08:34:31;2.90;;;1.42;;
12441;SDS011;6285;48.804;9.220;2022-12-29T08:36:58;2.13;;;1.48;;
12441;SDS011;6285;48.804;9.220;2022-12-29T08:39:25;3.63;;;1.70;;
12441;SDS011;6285;48.804;9.220;2022-12-29T08:41:53;4.30;;;1.75;;
12441;SDS011;6285;48.804;9.220;2022-12-29T08:44:22;3.72;;;2.03;;
12441;SDS011;6285;48.804;9.220;2022-12-29T08:46:49;2.80;;;1.73;;
12441;SDS011;6285;48.804;9.220;2022-12-29T08:49:16;3.63;;;1.58;;
12441;SDS011;6285;48.804;9.220;2022-12-29T08:51:43;3.67;;;1.90;;
12441;SDS011;6285;48.804;9.220;2022-12-29T08:54:10;2.63;;;1.40;;
12441;SDS011;6285;48.804;9.220;2022-12-29T08:56:37;3.03;;;1.67;;
12441;SDS011;6285;48.804;9.220;2022-12-29T08:59:04;2.95;;;1.58;;
12441;SDS011;6285;48.804;9.220;2022-12-29T09:01:33;2.45;;;1.48;;
12441;SDS011;6285;48.804;9.220;2022-12-29T09:04:01;1.95;;;1.48;;
12441;SDS011;6285;48.804;9.220;2022-12-29T09:06:28;5.65;;;1.95;;
12441;SDS011;6285;48.804;9.220;2022-12-29T09:08:55;5.13;;;1.88;;
12441;SDS011;6285;48.804;9.220;2022-12-29T09:11:23;3.60;;;1.67;;
12441;SDS011;6285;48.804;9.220;2022-12-29T09:13:50;4.82;;;1.83;;
12441;SDS011;6285;48.804;9.220;2022-12-29T09:16:17;3.67;;;1.58;;
12441;SDS011;6285;48.804;9.220;2022-12-29T09:18:46;2.67;;;1.65;;
12441;SDS011;6285;48.804;9.220;2022-12-29T09:21:13;3.95;;;1.88;;
12441;SDS011;6285;48.804;9.220;2022-12-29T09:23:40;4.72;;;1.85;;
12441;SDS011;6285;48.804;9.220;2022-12-29T09:26:07;2.72;;;1.70;;
12441;SDS011;6285;48.804;9.220;2022-12-29T09:28:35;3.33;;;1.95;;
12441;SDS011;6285;48.804;9.220;2022-12-29T09:31:02;5.32;;;1.70;;
12441;SDS011;6285;48.804;9.220;2022-12-29T09:33:29;3.60;;;1.77;;
12441;SDS011;6285;48.804;9.220;2022-12-29T09:35:58;5.30;;;3.05;;
12441;SDS011;6285;48.804;9.220;2022-12-29T09:38:26;5.78;;;1.52;;
12441;SDS011;6285;48.804;9.220;2022-12-29T09:40:54;5.57;;;1.85;;
12441;SDS011;6285;48.804;9.220;2022-12-29T09:43:28;3.45;;;1.45;;
12441;SDS011;6285;48.804;9.220;2022-12-29T09:46:00;2.58;;;1.40;;
12441;SDS011;6285;48.804;9.220;2022-12-29T09:48:31;5.15;;;1.55;;
12441;SDS011;6285;48.804;9.220;2022-12-29T09:51:00;2.88;;;1.40;;
12441;SDS011;6285;48.804;9.220;2022-12-29T09:53:29;5.45;;;3.70;;
12441;SDS011;6285;48.804;9.220;2022-12-29T09:55:59;5.35;;;2.38;;
12441;SDS011;6285;48.804;9.220;2022-12-29T09:58:29;3.35;;;2.60;;
12441;SDS011;6285;48.804;9.220;2022-12-29T10:00:58;3.63;;;2.05;;
12441;SDS011;6285;48.804;9.220;2022-12-29T10:03:28;4.68;;;2.20;;
12441;SDS011;6285;48.804;9.220;2022-12-29T10:06:02;2.28;;;1.65;;
12441;SDS011;6285;48.804;9.220;2022-12-29T10:08:33;4.95;;;1.75;;
12441;SDS011;6285;48.804;9.220;2022-12-29T10:11:03;4.13;;;1.60;;
12441;SDS011;6285;48.804;9.220;2022-12-29T10:13:36;4.68;;;1.60;;
12441;SDS011;6285;48.804;9.220;2022-12-29T10:16:09;2.10;;;1.40;;
12441;SDS011;6285;48.804;9.220;2022-12-29T10:18:49;3.15;;;1.73;;
12441;SDS011;6285;48.804;9.220;2022-12-29T10:21:26;4.70;;;1.90;;
12441;SDS011;6285;48.804;9.220;2022-12-29T10:23:55;2.65;;;1.50;;
12441;SDS011;6285;48.804;9.220;2022-12-29T10:26:23;2.08;;;1.48;;
12441;SDS011;6285;48.804;9.220;2022-12-29T10:28:54;2.85;;;1.65;;
12441;SDS011;6285;48.804;9.220;2022-12-29T10:31:22;4.63;;;1.88;;
12441;SDS011;6285;48.804;9.220;2022-12-29T10:33:51;5.10;;;2.08;;
12441;SDS011;6285;48.804;9.220;2022-12-29T10:36:25;3.03;;;1.60;;
12441;SDS011;6285;48.804;9.220;2022-12-29T10:38:58;4.78;;;1.90;;
12441;SDS011;6285;48.804;9.220;2022-12-29T10:41:32;5.07;;;1.92;;
12441;SDS011;6285;48.804;9.220;2022-12-29T10:44:01;5.18;;;3.25;;
12441;SDS011;6285;48.804;9.220;2022-12-29T10:46:29;3.38;;;2.15;;
12441;SDS011;6285;48.804;9.220;2022-12-29T10:48:57;7.35;;;3.10;;
12441;SDS011;6285;48.804;9.220;2022-12-29T10:51:26;2.33;;;1.55;;
12441;SDS011;6285;48.804;9.220;2022-12-29T10:53:55;3.35;;;1.60;;
12441;SDS011;6285;48.804;9.220;2022-12-29T10:56:29;3.17;;;1.70;;
12441;SDS011;6285;48.804;9.220;2022-12-29T10:59:01;1.85;;;1.50;;
12441;SDS011;6285;48.804;9.220;2022-12-29T11:01:35;3.55;;;1.55;;
12441;SDS011;6285;48.804;9.220;2022-12-29T11:04:04;3.78;;;1.33;;
12441;SDS011;6285;48.804;9.220;2022-12-29T11:06:34;5.50;;;1.80;;
12441;SDS011;6285;48.804;9.220;2022-12-29T11:09:08;3.20;;;1.33;;
12441;SDS011;6285;48.804;9.220;2022-12-29T11:11:37;2.15;;;1.30;;
12441;SDS011;6285;48.804;9.220;2022-12-29T11:14:10;4.25;;;1.50;;
12441;SDS011;6285;48.804;9.220;2022-12-29T11:16:37;5.15;;;1.70;;
12441;SDS011;6285;48.804;9.220;2022-12-29T11:19:10;2.45;;;1.20;;
12441;SDS011;6285;48.804;9.220;2022-12-29T11:21:47;4.43;;;1.90;;
12441;SDS011;6285;48.804;9.220;2022-12-29T11:24:19;2.47;;;1.40;;
12441;SDS011;6285;48.804;9.220;2022-12-29T11:26:46;1.92;;;1.35;;
12441;SDS011;6285;48.804;9.220;2022-12-29T11:29:22;3.78;;;1.55;;
12441;SDS011;6285;48.804;9.220;2022-12-29T11:31:50;3.80;;;1.92;;
12441;SDS011;6285;48.804;9.220;2022-12-29T11:34:19;2.53;;;1.80;;
12441;SDS011;6285;48.804;9.220;2022-12-29T11:36:48;4.43;;;1.90;;
12441;SDS011;6285;48.804;9.220;2022-12-29T11:39:24;7.10;;;1.80;;
12441;SDS011;6285;48.804;9.220;2022-12-29T11:41:52;3.92;;;1.38;;
12441;SDS011;6285;48.804;9.220;2022-12-29T11:44:20;3.63;;;1.80;;
12441;SDS011;6285;48.804;9.220;2022-12-29T11:46:48;6.25;;;3.17;;
12441;SDS011;6285;48.804;9.220;2022-12-29T11:49:18;5.32;;;2.22;;
12441;SDS011;6285;48.804;9.220;2022-12-29T11:51:47;6.32;;;1.60;;
12441;SDS011;6285;48.804;9.220;2022-12-29T11:54:16;2.97;;;1.33;;
12441;SDS011;6285;48.804;9.220;2022-12-29T11:56:45;2.90;;;1.60;;
12441;SDS011;6285;48.804;9.220;2022-12-29T12:04:53;4.43;;;1.55;;
12441;SDS011;6285;48.804;9.220;2022-12-29T12:07:24;2.75;;;1.40;;
12441;SDS011;6285;48.804;9.220;2022-12-29T12:09:58;3.08;;;1.50;;
12441;SDS011;6285;48.804;9.220;2022-12-29T12:12:27;3.03;;;1.73;;
12441;SDS011;6285;48.804;9.220;2022-12-29T12:14:56;2.30;;;1.20;;
12441;SDS011;6285;48.804;9.220;2022-12-29T12:17:25;3.10;;;1.80;;
12441;SDS011;6285;48.804;9.220;2022-12-29T12:20:03;2.60;;;1.63;;
12441;SDS011;6285;48.804;9.220;2022-12-29T12:22:32;5.32;;;1.35;;
12441;SDS011;6285;48.804;9.220;2022-12-29T12:25:03;2.88;;;1.98;;
12441;SDS011;6285;48.804;9.220;2022-12-29T12:27:33;2.80;;;1.55;;
12441;SDS011;6285;48.804;9.220;2022-12-29T12:30:10;6.68;;;1.92;;
12441;SDS011;6285;48.804;9.220;2022-12-29T12:32:39;2.75;;;1.77;;
12441;SDS011;6285;48.804;9.220;2022-12-29T12:35:20;4.47;;;1.80;;
12441;SDS011;6285;48.804;9.220;2022-12-29T12:38:05;4.03;;;1.60;;
12441;SDS011;6285;48.804;9.220;2022-12-29T12:40:46;2.67;;;1.60;;
12441;SDS011;6285;48.804;9.220;2022-12-29T12:43:28;4.88;;;1.80;;
12441;SDS011;6285;48.804;9.220;2022-12-29T12:46:00;4.03;;;1.90;;
12441;SDS011;6285;48.804;9.220;2022-12-29T12:48:38;4.30;;;2.13;;
12441;SDS011;6285;48.804;9.220;2022-12-29T12:51:11;4.47;;;2.15;;
12441;SDS011;6285;48.804;9.220;2022-12-29T12:53:49;4.30;;;2.08;;
12441;SDS011;6285;48.804;9.220;2022-12-29T12:56:26;3.47;;;2.03;;
12441;SDS011;6285;48.804;9.220;2022-12-29T12:58:55;4.13;;;1.80;;
12441;SDS011;6285;48.804;9.220;2022-12-29T13:01:28;3.47;;;2.13;;
12441;SDS011;6285;48.804;9.220;2022-12-29T13:04:00;2.25;;;1.65;;
12441;SDS011;6285;48.804;9.220;2022-12-29T13:06:34;3.67;;;1.73;;
12441;SDS011;6285;48.804;9.220;2022-12-29T13:09:16;2.90;;;1.48;;
12441;SDS011;6285;48.804;9.220;2022-12-29T13:11:54;2.10;;;1.65;;
12441;SDS011;6285;48.804;9.220;2022-12-29T13:14:25;6.53;;;1.60;;
12441;SDS011;6285;48.804;9.220;2022-12-29T13:16:58;3.72;;;1.80;;
12441;SDS011;6285;48.804;9.220;2022-12-29T13:19:30;2.40;;;1.65;;
12441;SDS011;6285;48.804;9.220;2022-12-29T13:22:00;5.45;;;2.85;;
12441;SDS011;6285;48.804;9.220;2022-12-29T13:24:30;3.72;;;2.05;;
12441;SDS011;6285;48.804;9.220;2022-12-29T13:27:02;3.47;;;2.25;;
12441;SDS011;6285;48.804;9.220;2022-12-29T13:29:32;2.72;;;1.60;;
12441;SDS011;6285;48.804;9.220;2022-12-29T13:32:04;3.85;;;2.47;;
12441;SDS011;6285;48.804;9.220;2022-12-29T13:34:36;2.38;;;1.80;;
12441;SDS011;6285;48.804;9.220;2022-12-29T13:37:07;3.20;;;1.23;;
12441;SDS011;6285;48.804;9.220;2022-12-29T13:39:38;2.42;;;1.63;;
12441;SDS011;6285;48.804;9.220;2022-12-29T13:42:07;2.95;;;1.55;;
12441;SDS011;6285;48.804;9.220;2022-12-29T13:44:37;3.85;;;1.73;;
12441;SDS011;6285;48.804;9.220;2022-12-29T13:47:06;3.45;;;1.88;;
12441;SDS011;6285;48.804;9.220;2022-12-29T13:49:40;3.58;;;2.30;;
12441;SDS011;6285;48.804;9.220;2022-12-29T13:52:09;2.30;;;1.45;;
12441;SDS011;6285;48.804;9.220;2022-12-29T13:54:39;3.70;;;1.85;;
12441;SDS011;6285;48.804;9.220;2022-12-29T13:57:10;2.67;;;1.70;;
12441;SDS011;6285;48.804;9.220;2022-12-29T13:59:42;5.07;;;3.55;;
12441;SDS011;6285;48.804;9.220;2022-12-29T14:02:21;6.93;;;3.60;;
12441;SDS011;6285;48.804;9.220;2022-12-29T14:04:56;12.48;;;7.90;;
12441;SDS011;6285;48.804;9.220;2022-12-29T14:07:23;5.82;;;3.28;;
12441;SDS011;6285;48.804;9.220;2022-12-29T14:09:51;4.43;;;2.47;;
12441;SDS011;6285;48.804;9.220;2022-12-29T14:12:20;2.97;;;2.20;;
12441;SDS011;6285;48.804;9.220;2022-12-29T14:14:48;3.38;;;1.85;;
12441;SDS011;6285;48.804;9.220;2022-12-29T14:17:16;3.20;;;2.05;;
12441;SDS011;6285;48.804;9.220;2022-12-29T14:19:44;4.90;;;1.80;;
12441;SDS011;6285;48.804;9.220;2022-12-29T14:22:12;4.30;;;2.28;;
12441;SDS011;6285;48.804;9.220;2022-12-29T14:24:40;5.10;;;2.25;;
12441;SDS011;6285;48.804;9.220;2022-12-29T14:29:56;3.20;;;2.47;;
12441;SDS011;6285;48.804;9.220;2022-12-29T14:32:35;2.40;;;1.92;;
12441;SDS011;6285;48.804;9.220;2022-12-29T14:37:49;4.05;;;2.00;;
12441;SDS011;6285;48.804;9.220;2022-12-29T14:40:31;4.55;;;1.90;;
12441;SDS011;6285;48.804;9.220;2022-12-29T14:42:59;4.47;;;2.35;;
12441;SDS011;6285;48.804;9.220;2022-12-29T14:45:28;4.28;;;2.28;;
12441;SDS011;6285;48.804;9.220;2022-12-29T14:47:57;4.82;;;2.00;;
12441;SDS011;6285;48.804;9.220;2022-12-29T14:50:25;3.28;;;2.00;;
12441;SDS011;6285;48.804;9.220;2022-12-29T14:52:57;10.82;;;4.10;;
12441;SDS011;6285;48.804;9.220;2022-12-29T14:55:28;6.50;;;3.53;;
12441;SDS011;6285;48.804;9.220;2022-12-29T14:57:57;6.18;;;4.10;;
12441;SDS011;6285;48.804;9.220;2022-12-29T15:00:26;4.50;;;2.78;;
12441;SDS011;6285;48.804;9.220;2022-12-29T15:03:02;2.78;;;2.40;;
12441;SDS011;6285;48.804;9.220;2022-12-29T15:05:32;5.72;;;3.85;;
12441;SDS011;6285;48.804;9.220;2022-12-29T15:08:00;6.60;;;3.50;;
12441;SDS011;6285;48.804;9.220;2022-12-29T15:10:31;5.15;;;3.25;;
12441;SDS011;6285;48.804;9.220;2022-12-29T15:13:02;5.43;;;2.72;;
12441;SDS011;6285;48.804;9.220;2022-12-29T15:15:35;3.70;;;2.42;;
12441;SDS011;6285;48.804;9.220;2022-12-29T15:18:13;16.50;;;9.57;;
12441;SDS011;6285;48.804;9.220;2022-12-29T15:20:40;17.75;;;9.60;;
12441;SDS011;6285;48.804;9.220;2022-12-29T15:23:09;10.13;;;5.70;;
12441;SDS011;6285;48.804;9.220;2022-12-29T15:25:44;6.72;;;4.00;;
12441;SDS011;6285;48.804;9.220;2022-12-29T15:28:13;6.68;;;3.90;;
12441;SDS011;6285;48.804;9.220;2022-12-29T15:30:49;4.50;;;3.33;;